Issaquah, WA

9:55 AM PDT on August 28, 2016 (GMT -0700)
APRSWXNET | | Change Station

Elev 1378 ft 47.50 °N, 122.07 °W | Updated 30 days ago

Cloudy
Cloudy
63 °F
Feels Like 63 °F
N
5
Wind Variable Wind from SW
Gusts mph

Today
High -- | Low -- °F
--% Chance of Precip.
Yesterday
High -- | Low -- °F
Precip. -- in
Pressure 30.09 in
Visibility 10.0 miles
Clouds Overcast 2300 ft
Dew Point 53 °F
Humidity 70%
Rainfall in
Snow Depth Not available.
6:22 AM 7:55 PM
Waning Crescent, 14% visible
METAR KRNT 281553Z 17005KT 10SM OVC023 16/11 A3007 RMK AO2 SLP188 T01610106
Pressure 30.09 in
Visibility 10.0 miles
Clouds Overcast 2300 ft
Dew Point 53 °F
Humidity 70%
Rainfall in
Snow Depth Not available.
6:22 AM 7:55 PM
Waning Crescent, 14% visible
METAR KRNT 281553Z 17005KT 10SM OVC023 16/11 A3007 RMK AO2 SLP188 T01610106

10-Day Weather Forecast

Almanac

Astronomy

Aug. 28, 2016 Rise Set
Actual Time
Civil Twilight
Nautical Twilight
Astronomical Twilight
Moon
Length of Visible Light
Length of Day
Tomorrow will be .
, % of the Moon is Illuminated

Today's Extremes

State Highs State Lows

Community

WunderPhotos

Upload Photos

1,935,627 photos uploaded!

WunderBlog® & News

Nearby

Air Quality

  Air Quality AQ Index Pollutant
Not available.

Snow Depth

Station Depth Elevation

Earthquake Activity

City Distance Mag. Time & Date
Minimum magnitude displayed is 2.5.

Coastal Water Temperatures

Place Temperature

Stations

Nearby Weather Stations

Station Location Temp. Windchill Dew Point Humidity Wind Precip. Elev Updated Type
                   

Watches & Warnings

There are currently no watches in effect.